sensor_id;sensor_type;location;lat;lon;timestamp;P1;durP1;ratioP1;P2;durP2;ratioP2
15363;SDS011;7781;49.690;6.472;2023-05-02T00:00:24;14.57;;;9.50;;
15363;SDS011;7781;49.690;6.472;2023-05-02T00:02:54;16.50;;;10.50;;
15363;SDS011;7781;49.690;6.472;2023-05-02T00:05:23;16.73;;;10.77;;
15363;SDS011;7781;49.690;6.472;2023-05-02T00:07:51;14.33;;;9.73;;
15363;SDS011;7781;49.690;6.472;2023-05-02T00:10:20;11.93;;;9.20;;
15363;SDS011;7781;49.690;6.472;2023-05-02T00:12:51;14.20;;;9.30;;
15363;SDS011;7781;49.690;6.472;2023-05-02T00:15:21;17.37;;;10.90;;
15363;SDS011;7781;49.690;6.472;2023-05-02T00:17:50;16.03;;;10.53;;
15363;SDS011;7781;49.690;6.472;2023-05-02T00:20:21;15.73;;;10.43;;
15363;SDS011;7781;49.690;6.472;2023-05-02T00:22:50;17.80;;;11.37;;
15363;SDS011;7781;49.690;6.472;2023-05-02T00:25:20;15.00;;;10.63;;
15363;SDS011;7781;49.690;6.472;2023-05-02T00:27:49;16.27;;;10.43;;
15363;SDS011;7781;49.690;6.472;2023-05-02T00:30:18;17.50;;;11.80;;
15363;SDS011;7781;49.690;6.472;2023-05-02T00:32:47;15.93;;;11.10;;
15363;SDS011;7781;49.690;6.472;2023-05-02T00:35:16;16.20;;;11.50;;
15363;SDS011;7781;49.690;6.472;2023-05-02T00:37:46;18.37;;;11.37;;
15363;SDS011;7781;49.690;6.472;2023-05-02T00:40:14;13.57;;;10.10;;
15363;SDS011;7781;49.690;6.472;2023-05-02T00:42:44;13.53;;;9.93;;
15363;SDS011;7781;49.690;6.472;2023-05-02T00:45:13;14.33;;;10.50;;
15363;SDS011;7781;49.690;6.472;2023-05-02T00:47:42;18.30;;;11.20;;
15363;SDS011;7781;49.690;6.472;2023-05-02T00:50:13;17.03;;;11.40;;
15363;SDS011;7781;49.690;6.472;2023-05-02T00:52:47;19.13;;;12.30;;
15363;SDS011;7781;49.690;6.472;2023-05-02T00:55:16;19.97;;;12.27;;
15363;SDS011;7781;49.690;6.472;2023-05-02T00:57:45;16.40;;;10.93;;
15363;SDS011;7781;49.690;6.472;2023-05-02T01:00:16;18.90;;;12.87;;
15363;SDS011;7781;49.690;6.472;2023-05-02T01:02:47;15.90;;;10.57;;
15363;SDS011;7781;49.690;6.472;2023-05-02T01:05:24;19.23;;;10.23;;
15363;SDS011;7781;49.690;6.472;2023-05-02T01:08:09;16.43;;;11.13;;
15363;SDS011;7781;49.690;6.472;2023-05-02T01:10:47;24.90;;;12.10;;
15363;SDS011;7781;49.690;6.472;2023-05-02T01:13:23;17.97;;;10.50;;
15363;SDS011;7781;49.690;6.472;2023-05-02T01:15:55;17.40;;;10.67;;
15363;SDS011;7781;49.690;6.472;2023-05-02T01:18:27;16.60;;;10.63;;
15363;SDS011;7781;49.690;6.472;2023-05-02T01:21:02;15.60;;;10.60;;
15363;SDS011;7781;49.690;6.472;2023-05-02T01:23:40;17.23;;;10.90;;
15363;SDS011;7781;49.690;6.472;2023-05-02T01:26:15;14.00;;;9.90;;
15363;SDS011;7781;49.690;6.472;2023-05-02T01:28:57;12.67;;;8.80;;
15363;SDS011;7781;49.690;6.472;2023-05-02T01:31:28;16.83;;;11.00;;
15363;SDS011;7781;49.690;6.472;2023-05-02T01:34:00;15.20;;;10.67;;
15363;SDS011;7781;49.690;6.472;2023-05-02T01:36:31;17.03;;;11.83;;
15363;SDS011;7781;49.690;6.472;2023-05-02T01:39:02;15.30;;;11.03;;
15363;SDS011;7781;49.690;6.472;2023-05-02T01:41:33;16.77;;;11.67;;
15363;SDS011;7781;49.690;6.472;2023-05-02T01:44:05;19.27;;;12.00;;
15363;SDS011;7781;49.690;6.472;2023-05-02T01:46:36;18.47;;;12.10;;
15363;SDS011;7781;49.690;6.472;2023-05-02T01:49:07;20.50;;;12.67;;
15363;SDS011;7781;49.690;6.472;2023-05-02T01:51:41;17.00;;;12.10;;
15363;SDS011;7781;49.690;6.472;2023-05-02T01:54:13;18.37;;;11.40;;
15363;SDS011;7781;49.690;6.472;2023-05-02T01:56:44;22.60;;;10.43;;
15363;SDS011;7781;49.690;6.472;2023-05-02T01:59:15;15.67;;;10.73;;
15363;SDS011;7781;49.690;6.472;2023-05-02T02:01:46;15.20;;;9.80;;
15363;SDS011;7781;49.690;6.472;2023-05-02T02:04:18;22.00;;;11.03;;
15363;SDS011;7781;49.690;6.472;2023-05-02T02:06:48;16.77;;;10.50;;
15363;SDS011;7781;49.690;6.472;2023-05-02T02:09:20;15.27;;;10.77;;
15363;SDS011;7781;49.690;6.472;2023-05-02T02:11:51;17.40;;;10.80;;
15363;SDS011;7781;49.690;6.472;2023-05-02T02:14:32;18.13;;;11.10;;
15363;SDS011;7781;49.690;6.472;2023-05-02T02:17:04;19.23;;;13.10;;
15363;SDS011;7781;49.690;6.472;2023-05-02T02:19:39;21.40;;;13.13;;
15363;SDS011;7781;49.690;6.472;2023-05-02T02:22:08;22.00;;;13.60;;
15363;SDS011;7781;49.690;6.472;2023-05-02T02:24:40;22.10;;;13.20;;
15363;SDS011;7781;49.690;6.472;2023-05-02T02:27:11;18.73;;;12.20;;
15363;SDS011;7781;49.690;6.472;2023-05-02T02:29:41;21.77;;;13.20;;
15363;SDS011;7781;49.690;6.472;2023-05-02T02:32:11;21.67;;;13.60;;
15363;SDS011;7781;49.690;6.472;2023-05-02T02:34:40;20.13;;;13.00;;
15363;SDS011;7781;49.690;6.472;2023-05-02T02:37:11;21.90;;;13.43;;
15363;SDS011;7781;49.690;6.472;2023-05-02T02:39:45;18.20;;;12.00;;
15363;SDS011;7781;49.690;6.472;2023-05-02T02:42:22;23.47;;;12.77;;
15363;SDS011;7781;49.690;6.472;2023-05-02T02:45:00;21.77;;;12.77;;
15363;SDS011;7781;49.690;6.472;2023-05-02T02:47:40;15.07;;;11.30;;
15363;SDS011;7781;49.690;6.472;2023-05-02T02:50:18;19.90;;;12.30;;
15363;SDS011;7781;49.690;6.472;2023-05-02T02:53:01;21.33;;;12.40;;
15363;SDS011;7781;49.690;6.472;2023-05-02T02:55:35;21.87;;;12.50;;
15363;SDS011;7781;49.690;6.472;2023-05-02T02:58:16;26.37;;;13.10;;
15363;SDS011;7781;49.690;6.472;2023-05-02T03:00:50;24.40;;;14.27;;
15363;SDS011;7781;49.690;6.472;2023-05-02T03:03:19;23.20;;;14.00;;
15363;SDS011;7781;49.690;6.472;2023-05-02T03:05:54;19.33;;;12.37;;
15363;SDS011;7781;49.690;6.472;2023-05-02T03:08:24;22.20;;;14.33;;
15363;SDS011;7781;49.690;6.472;2023-05-02T03:10:54;23.40;;;14.00;;
15363;SDS011;7781;49.690;6.472;2023-05-02T03:13:22;25.17;;;14.17;;
15363;SDS011;7781;49.690;6.472;2023-05-02T03:16:05;24.33;;;15.10;;
15363;SDS011;7781;49.690;6.472;2023-05-02T03:18:50;21.40;;;13.27;;
15363;SDS011;7781;49.690;6.472;2023-05-02T03:21:19;28.00;;;15.20;;
15363;SDS011;7781;49.690;6.472;2023-05-02T03:23:48;24.60;;;13.93;;
15363;SDS011;7781;49.690;6.472;2023-05-02T03:26:16;26.03;;;15.10;;
15363;SDS011;7781;49.690;6.472;2023-05-02T03:28:45;21.43;;;14.40;;
15363;SDS011;7781;49.690;6.472;2023-05-02T03:31:20;21.60;;;13.50;;
15363;SDS011;7781;49.690;6.472;2023-05-02T03:33:52;18.70;;;12.90;;
15363;SDS011;7781;49.690;6.472;2023-05-02T03:36:21;19.60;;;12.30;;
15363;SDS011;7781;49.690;6.472;2023-05-02T03:38:52;18.60;;;12.37;;
15363;SDS011;7781;49.690;6.472;2023-05-02T03:41:22;16.83;;;12.33;;
15363;SDS011;7781;49.690;6.472;2023-05-02T03:43:58;23.87;;;13.50;;
15363;SDS011;7781;49.690;6.472;2023-05-02T03:46:29;17.50;;;11.53;;
15363;SDS011;7781;49.690;6.472;2023-05-02T03:48:58;19.80;;;11.80;;
15363;SDS011;7781;49.690;6.472;2023-05-02T03:51:27;15.63;;;11.13;;
15363;SDS011;7781;49.690;6.472;2023-05-02T03:53:56;19.30;;;11.77;;
15363;SDS011;7781;49.690;6.472;2023-05-02T03:56:24;15.77;;;9.97;;
15363;SDS011;7781;49.690;6.472;2023-05-02T03:59:11;15.43;;;11.00;;
15363;SDS011;7781;49.690;6.472;2023-05-02T04:01:47;20.43;;;12.20;;
15363;SDS011;7781;49.690;6.472;2023-05-02T04:04:24;19.10;;;11.93;;
15363;SDS011;7781;49.690;6.472;2023-05-02T04:06:54;18.30;;;12.17;;
15363;SDS011;7781;49.690;6.472;2023-05-02T04:09:23;17.10;;;10.87;;
15363;SDS011;7781;49.690;6.472;2023-05-02T04:11:56;25.47;;;11.90;;
15363;SDS011;7781;49.690;6.472;2023-05-02T04:14:25;18.13;;;12.10;;
15363;SDS011;7781;49.690;6.472;2023-05-02T04:16:58;20.20;;;13.10;;
15363;SDS011;7781;49.690;6.472;2023-05-02T04:19:34;16.20;;;11.20;;
15363;SDS011;7781;49.690;6.472;2023-05-02T04:22:03;19.17;;;12.37;;
15363;SDS011;7781;49.690;6.472;2023-05-02T04:24:36;19.70;;;11.97;;
15363;SDS011;7781;49.690;6.472;2023-05-02T04:27:04;22.00;;;12.40;;
15363;SDS011;7781;49.690;6.472;2023-05-02T04:29:34;21.53;;;11.80;;
15363;SDS011;7781;49.690;6.472;2023-05-02T04:32:06;19.47;;;13.97;;
15363;SDS011;7781;49.690;6.472;2023-05-02T04:34:36;22.10;;;12.47;;
15363;SDS011;7781;49.690;6.472;2023-05-02T04:37:08;22.90;;;13.87;;
15363;SDS011;7781;49.690;6.472;2023-05-02T04:39:37;34.10;;;15.00;;
15363;SDS011;7781;49.690;6.472;2023-05-02T04:42:11;27.40;;;15.30;;
15363;SDS011;7781;49.690;6.472;2023-05-02T04:44:57;32.37;;;15.00;;
15363;SDS011;7781;49.690;6.472;2023-05-02T04:47:27;165.43;;;17.10;;
15363;SDS011;7781;49.690;6.472;2023-05-02T04:49:56;46.57;;;15.13;;
15363;SDS011;7781;49.690;6.472;2023-05-02T04:52:26;272.30;;;19.10;;
15363;SDS011;7781;49.690;6.472;2023-05-02T04:54:54;65.47;;;15.50;;
15363;SDS011;7781;49.690;6.472;2023-05-02T04:57:24;151.20;;;14.03;;
15363;SDS011;7781;49.690;6.472;2023-05-02T04:59:57;259.47;;;17.40;;
15363;SDS011;7781;49.690;6.472;2023-05-02T05:02:29;61.20;;;13.77;;
15363;SDS011;7781;49.690;6.472;2023-05-02T05:05:07;94.90;;;13.37;;
15363;SDS011;7781;49.690;6.472;2023-05-02T05:07:36;42.53;;;12.10;;
15363;SDS011;7781;49.690;6.472;2023-05-02T05:10:07;20.30;;;13.00;;
15363;SDS011;7781;49.690;6.472;2023-05-02T05:12:42;19.50;;;12.77;;
15363;SDS011;7781;49.690;6.472;2023-05-02T05:15:13;19.17;;;13.40;;
15363;SDS011;7781;49.690;6.472;2023-05-02T05:17:49;21.10;;;12.67;;
15363;SDS011;7781;49.690;6.472;2023-05-02T05:20:19;20.23;;;12.67;;
15363;SDS011;7781;49.690;6.472;2023-05-02T05:22:50;18.03;;;13.37;;
15363;SDS011;7781;49.690;6.472;2023-05-02T05:25:20;17.90;;;13.30;;
15363;SDS011;7781;49.690;6.472;2023-05-02T05:27:50;21.33;;;14.10;;
15363;SDS011;7781;49.690;6.472;2023-05-02T05:30:21;18.40;;;13.20;;
15363;SDS011;7781;49.690;6.472;2023-05-02T05:32:54;20.87;;;13.80;;
15363;SDS011;7781;49.690;6.472;2023-05-02T05:35:23;22.80;;;13.80;;
15363;SDS011;7781;49.690;6.472;2023-05-02T05:37:53;19.90;;;13.50;;
15363;SDS011;7781;49.690;6.472;2023-05-02T05:40:25;19.70;;;12.90;;
15363;SDS011;7781;49.690;6.472;2023-05-02T05:42:56;20.10;;;13.27;;
15363;SDS011;7781;49.690;6.472;2023-05-02T05:45:30;22.73;;;14.40;;
15363;SDS011;7781;49.690;6.472;2023-05-02T05:48:00;19.43;;;13.30;;
15363;SDS011;7781;49.690;6.472;2023-05-02T05:50:34;21.70;;;13.10;;
15363;SDS011;7781;49.690;6.472;2023-05-02T05:53:03;19.97;;;13.03;;
15363;SDS011;7781;49.690;6.472;2023-05-02T05:55:33;21.67;;;13.80;;
15363;SDS011;7781;49.690;6.472;2023-05-02T05:58:05;23.30;;;14.47;;
15363;SDS011;7781;49.690;6.472;2023-05-02T06:00:36;18.50;;;12.53;;
15363;SDS011;7781;49.690;6.472;2023-05-02T06:03:06;19.40;;;12.60;;
15363;SDS011;7781;49.690;6.472;2023-05-02T06:05:37;19.50;;;13.47;;
15363;SDS011;7781;49.690;6.472;2023-05-02T06:08:06;20.63;;;14.03;;
15363;SDS011;7781;49.690;6.472;2023-05-02T06:10:35;20.47;;;14.13;;
15363;SDS011;7781;49.690;6.472;2023-05-02T06:13:05;19.10;;;12.57;;
15363;SDS011;7781;49.690;6.472;2023-05-02T06:15:37;15.03;;;11.33;;
15363;SDS011;7781;49.690;6.472;2023-05-02T06:18:08;15.20;;;12.10;;
15363;SDS011;7781;49.690;6.472;2023-05-02T06:20:37;16.43;;;12.37;;
15363;SDS011;7781;49.690;6.472;2023-05-02T06:23:07;16.50;;;12.53;;
15363;SDS011;7781;49.690;6.472;2023-05-02T06:25:37;19.80;;;14.50;;
15363;SDS011;7781;49.690;6.472;2023-05-02T06:28:06;18.30;;;12.83;;
15363;SDS011;7781;49.690;6.472;2023-05-02T06:30:36;21.50;;;14.20;;
15363;SDS011;7781;49.690;6.472;2023-05-02T06:33:08;23.57;;;14.33;;
15363;SDS011;7781;49.690;6.472;2023-05-02T06:35:38;22.67;;;14.87;;
15363;SDS011;7781;49.690;6.472;2023-05-02T06:38:08;19.83;;;13.30;;
15363;SDS011;7781;49.690;6.472;2023-05-02T06:40:38;23.13;;;13.33;;
15363;SDS011;7781;49.690;6.472;2023-05-02T06:43:10;22.47;;;14.50;;
15363;SDS011;7781;49.690;6.472;2023-05-02T06:45:40;20.10;;;13.80;;
15363;SDS011;7781;49.690;6.472;2023-05-02T06:48:12;23.40;;;14.17;;
15363;SDS011;7781;49.690;6.472;2023-05-02T06:50:42;21.20;;;13.97;;
15363;SDS011;7781;49.690;6.472;2023-05-02T06:53:10;20.40;;;13.37;;
15363;SDS011;7781;49.690;6.472;2023-05-02T06:55:39;25.87;;;14.50;;
15363;SDS011;7781;49.690;6.472;2023-05-02T06:58:08;22.07;;;13.13;;
15363;SDS011;7781;49.690;6.472;2023-05-02T07:00:40;25.87;;;14.73;;
15363;SDS011;7781;49.690;6.472;2023-05-02T07:03:09;18.20;;;13.23;;
15363;SDS011;7781;49.690;6.472;2023-05-02T07:05:39;22.20;;;14.70;;
15363;SDS011;7781;49.690;6.472;2023-05-02T07:08:08;24.40;;;15.60;;
15363;SDS011;7781;49.690;6.472;2023-05-02T07:10:37;21.03;;;14.27;;
15363;SDS011;7781;49.690;6.472;2023-05-02T07:13:05;17.97;;;13.67;;
15363;SDS011;7781;49.690;6.472;2023-05-02T07:15:35;21.43;;;14.03;;
15363;SDS011;7781;49.690;6.472;2023-05-02T07:18:04;22.00;;;14.60;;
15363;SDS011;7781;49.690;6.472;2023-05-02T07:20:35;21.40;;;14.43;;
15363;SDS011;7781;49.690;6.472;2023-05-02T07:23:09;24.00;;;13.87;;
15363;SDS011;7781;49.690;6.472;2023-05-02T07:25:38;23.10;;;13.83;;
15363;SDS011;7781;49.690;6.472;2023-05-02T07:28:09;22.87;;;14.50;;
15363;SDS011;7781;49.690;6.472;2023-05-02T07:30:38;25.50;;;16.47;;
15363;SDS011;7781;49.690;6.472;2023-05-02T07:33:07;26.63;;;16.70;;
15363;SDS011;7781;49.690;6.472;2023-05-02T07:35:37;24.73;;;15.00;;
15363;SDS011;7781;49.690;6.472;2023-05-02T07:38:07;24.87;;;15.73;;
15363;SDS011;7781;49.690;6.472;2023-05-02T07:40:37;23.67;;;14.50;;
15363;SDS011;7781;49.690;6.472;2023-05-02T07:43:06;22.33;;;14.23;;
15363;SDS011;7781;49.690;6.472;2023-05-02T07:45:40;20.17;;;13.90;;
15363;SDS011;7781;49.690;6.472;2023-05-02T07:48:09;22.07;;;13.97;;
15363;SDS011;7781;49.690;6.472;2023-05-02T07:50:38;20.27;;;14.33;;
15363;SDS011;7781;49.690;6.472;2023-05-02T07:53:09;22.00;;;14.57;;
15363;SDS011;7781;49.690;6.472;2023-05-02T07:55:37;18.40;;;13.23;;
15363;SDS011;7781;49.690;6.472;2023-05-02T07:58:07;17.90;;;11.70;;
15363;SDS011;7781;49.690;6.472;2023-05-02T08:00:36;19.97;;;12.97;;
15363;SDS011;7781;49.690;6.472;2023-05-02T08:03:04;16.87;;;11.30;;
15363;SDS011;7781;49.690;6.472;2023-05-02T08:05:35;19.43;;;12.27;;
15363;SDS011;7781;49.690;6.472;2023-05-02T08:08:03;15.10;;;8.90;;
15363;SDS011;7781;49.690;6.472;2023-05-02T08:10:37;13.33;;;7.77;;
15363;SDS011;7781;49.690;6.472;2023-05-02T08:13:06;17.10;;;8.43;;
15363;SDS011;7781;49.690;6.472;2023-05-02T08:15:36;12.63;;;7.17;;
15363;SDS011;7781;49.690;6.472;2023-05-02T08:18:04;19.47;;;8.00;;
15363;SDS011;7781;49.690;6.472;2023-05-02T08:20:33;11.47;;;7.23;;
15363;SDS011;7781;49.690;6.472;2023-05-02T08:23:03;11.57;;;7.67;;
15363;SDS011;7781;49.690;6.472;2023-05-02T08:25:32;10.93;;;7.13;;
15363;SDS011;7781;49.690;6.472;2023-05-02T08:28:02;11.70;;;7.30;;
15363;SDS011;7781;49.690;6.472;2023-05-02T08:30:31;10.83;;;6.67;;
15363;SDS011;7781;49.690;6.472;2023-05-02T08:32:59;14.27;;;7.87;;
15363;SDS011;7781;49.690;6.472;2023-05-02T08:35:31;12.93;;;7.00;;
15363;SDS011;7781;49.690;6.472;2023-05-02T08:38:01;13.77;;;7.10;;
15363;SDS011;7781;49.690;6.472;2023-05-02T08:40:32;13.40;;;8.27;;
15363;SDS011;7781;49.690;6.472;2023-05-02T08:43:10;15.23;;;8.10;;
15363;SDS011;7781;49.690;6.472;2023-05-02T08:45:40;13.10;;;7.07;;
15363;SDS011;7781;49.690;6.472;2023-05-02T08:48:12;15.23;;;7.40;;
15363;SDS011;7781;49.690;6.472;2023-05-02T08:50:42;14.20;;;8.47;;
15363;SDS011;7781;49.690;6.472;2023-05-02T08:53:15;11.93;;;7.80;;
15363;SDS011;7781;49.690;6.472;2023-05-02T08:55:45;16.57;;;7.70;;
15363;SDS011;7781;49.690;6.472;2023-05-02T08:58:17;10.27;;;7.03;;
15363;SDS011;7781;49.690;6.472;2023-05-02T09:00:45;10.90;;;6.80;;
15363;SDS011;7781;49.690;6.472;2023-05-02T09:03:19;9.37;;;6.67;;
15363;SDS011;7781;49.690;6.472;2023-05-02T09:05:56;11.30;;;7.40;;
15363;SDS011;7781;49.690;6.472;2023-05-02T09:08:39;12.67;;;7.13;;
15363;SDS011;7781;49.690;6.472;2023-05-02T09:11:11;10.93;;;5.97;;
15363;SDS011;7781;49.690;6.472;2023-05-02T09:13:42;9.50;;;6.47;;
15363;SDS011;7781;49.690;6.472;2023-05-02T09:16:12;12.73;;;6.40;;
15363;SDS011;7781;49.690;6.472;2023-05-02T09:18:43;10.67;;;5.97;;
15363;SDS011;7781;49.690;6.472;2023-05-02T09:21:14;15.20;;;5.60;;
15363;SDS011;7781;49.690;6.472;2023-05-02T09:23:47;11.50;;;5.40;;
15363;SDS011;7781;49.690;6.472;2023-05-02T09:26:18;7.70;;;5.13;;
15363;SDS011;7781;49.690;6.472;2023-05-02T09:28:51;7.37;;;4.80;;
15363;SDS011;7781;49.690;6.472;2023-05-02T09:31:21;8.13;;;4.97;;
15363;SDS011;7781;49.690;6.472;2023-05-02T09:33:54;10.17;;;4.93;;
15363;SDS011;7781;49.690;6.472;2023-05-02T09:36:37;6.47;;;4.07;;
15363;SDS011;7781;49.690;6.472;2023-05-02T09:39:08;8.80;;;5.90;;
15363;SDS011;7781;49.690;6.472;2023-05-02T09:41:39;7.27;;;4.23;;
15363;SDS011;7781;49.690;6.472;2023-05-02T09:44:11;5.80;;;3.70;;
15363;SDS011;7781;49.690;6.472;2023-05-02T09:46:41;5.90;;;3.70;;
15363;SDS011;7781;49.690;6.472;2023-05-02T09:49:14;5.70;;;3.53;;
15363;SDS011;7781;49.690;6.472;2023-05-02T09:51:46;6.33;;;3.60;;
15363;SDS011;7781;49.690;6.472;2023-05-02T09:57:03;4.50;;;2.90;;
15363;SDS011;7781;49.690;6.472;2023-05-02T09:59:34;6.93;;;3.60;;
15363;SDS011;7781;49.690;6.472;2023-05-02T10:02:03;5.30;;;3.57;;
15363;SDS011;7781;49.690;6.472;2023-05-02T10:04:35;5.33;;;4.07;;
15363;SDS011;7781;49.690;6.472;2023-05-02T10:07:06;4.90;;;3.43;;
15363;SDS011;7781;49.690;6.472;2023-05-02T10:09:36;6.50;;;3.87;;
15363;SDS011;7781;49.690;6.472;2023-05-02T10:12:10;4.87;;;3.57;;
15363;SDS011;7781;49.690;6.472;2023-05-02T10:14:44;4.40;;;3.20;;
15363;SDS011;7781;49.690;6.472;2023-05-02T10:17:21;6.90;;;4.30;;
15363;SDS011;7781;49.690;6.472;2023-05-02T10:19:55;8.13;;;4.60;;
15363;SDS011;7781;49.690;6.472;2023-05-02T10:22:27;5.93;;;4.47;;
15363;SDS011;7781;49.690;6.472;2023-05-02T10:24:57;6.93;;;3.83;;
15363;SDS011;7781;49.690;6.472;2023-05-02T10:27:28;7.20;;;3.60;;
15363;SDS011;7781;49.690;6.472;2023-05-02T10:29:58;6.33;;;3.80;;
15363;SDS011;7781;49.690;6.472;2023-05-02T10:32:29;6.37;;;3.63;;
15363;SDS011;7781;49.690;6.472;2023-05-02T10:35:01;5.80;;;4.00;;
15363;SDS011;7781;49.690;6.472;2023-05-02T10:37:33;5.70;;;4.20;;
15363;SDS011;7781;49.690;6.472;2023-05-02T10:40:05;6.53;;;4.00;;
15363;SDS011;7781;49.690;6.472;2023-05-02T10:42:39;6.90;;;4.50;;
15363;SDS011;7781;49.690;6.472;2023-05-02T10:45:28;6.30;;;3.57;;
15363;SDS011;7781;49.690;6.472;2023-05-02T10:48:11;4.83;;;3.77;;
15363;SDS011;7781;49.690;6.472;2023-05-02T10:50:44;8.33;;;4.00;;
15363;SDS011;7781;49.690;6.472;2023-05-02T10:53:27;3.93;;;3.37;;
15363;SDS011;7781;49.690;6.472;2023-05-02T10:56:12;5.57;;;3.30;;
15363;SDS011;7781;49.690;6.472;2023-05-02T10:58:46;4.80;;;2.97;;
15363;SDS011;7781;49.690;6.472;2023-05-02T11:01:37;3.77;;;3.10;;
15363;SDS011;7781;49.690;6.472;2023-05-02T11:04:08;3.87;;;2.97;;
15363;SDS011;7781;49.690;6.472;2023-05-02T11:09:44;5.57;;;2.90;;
15363;SDS011;7781;49.690;6.472;2023-05-02T11:15:10;7.70;;;3.90;;
15363;SDS011;7781;49.690;6.472;2023-05-02T11:17:59;9.30;;;3.17;;
15363;SDS011;7781;49.690;6.472;2023-05-02T11:20:28;6.40;;;3.63;;
15363;SDS011;7781;49.690;6.472;2023-05-02T11:23:18;5.10;;;3.33;;
15363;SDS011;7781;49.690;6.472;2023-05-02T11:25:54;3.67;;;2.67;;
15363;SDS011;7781;49.690;6.472;2023-05-02T11:28:47;4.97;;;3.50;;
15363;SDS011;7781;49.690;6.472;2023-05-02T11:37:16;6.43;;;3.30;;
15363;SDS011;7781;49.690;6.472;2023-05-02T11:39:47;5.10;;;3.13;;
15363;SDS011;7781;49.690;6.472;2023-05-02T11:42:26;5.17;;;3.73;;
15363;SDS011;7781;49.690;6.472;2023-05-02T11:44:56;7.00;;;3.30;;
15363;SDS011;7781;49.690;6.472;2023-05-02T11:47:27;4.00;;;3.37;;
15363;SDS011;7781;49.690;6.472;2023-05-02T11:50:02;4.00;;;3.33;;
15363;SDS011;7781;49.690;6.472;2023-05-02T11:52:35;4.23;;;3.63;;
15363;SDS011;7781;49.690;6.472;2023-05-02T11:55:06;4.70;;;3.13;;
15363;SDS011;7781;49.690;6.472;2023-05-02T11:57:37;8.93;;;3.23;;
15363;SDS011;7781;49.690;6.472;2023-05-02T12:00:08;4.00;;;2.87;;
15363;SDS011;7781;49.690;6.472;2023-05-02T12:02:40;2.97;;;2.50;;
15363;SDS011;7781;49.690;6.472;2023-05-02T12:05:12;3.03;;;2.30;;
15363;SDS011;7781;49.690;6.472;2023-05-02T12:07:43;3.63;;;2.27;;
15363;SDS011;7781;49.690;6.472;2023-05-02T12:10:15;2.20;;;2.00;;
15363;SDS011;7781;49.690;6.472;2023-05-02T12:12:45;2.10;;;1.90;;
15363;SDS011;7781;49.690;6.472;2023-05-02T12:15:15;3.07;;;1.90;;
15363;SDS011;7781;49.690;6.472;2023-05-02T12:17:46;2.33;;;2.13;;
15363;SDS011;7781;49.690;6.472;2023-05-02T12:20:19;2.50;;;2.00;;
15363;SDS011;7781;49.690;6.472;2023-05-02T12:22:47;2.03;;;1.60;;
15363;SDS011;7781;49.690;6.472;2023-05-02T12:25:16;1.80;;;1.70;;
15363;SDS011;7781;49.690;6.472;2023-05-02T12:30:37;2.80;;;1.97;;
15363;SDS011;7781;49.690;6.472;2023-05-02T12:33:08;4.17;;;2.20;;
15363;SDS011;7781;49.690;6.472;2023-05-02T12:35:40;5.77;;;2.47;;
15363;SDS011;7781;49.690;6.472;2023-05-02T12:38:13;3.00;;;2.20;;
15363;SDS011;7781;49.690;6.472;2023-05-02T12:40:46;3.83;;;2.17;;
15363;SDS011;7781;49.690;6.472;2023-05-02T12:43:16;4.00;;;2.13;;
15363;SDS011;7781;49.690;6.472;2023-05-02T12:45:45;2.00;;;1.80;;
15363;SDS011;7781;49.690;6.472;2023-05-02T12:48:18;3.30;;;1.70;;
15363;SDS011;7781;49.690;6.472;2023-05-02T12:50:51;3.20;;;1.70;;
15363;SDS011;7781;49.690;6.472;2023-05-02T12:53:36;3.03;;;1.67;;
15363;SDS011;7781;49.690;6.472;2023-05-02T12:56:07;1.77;;;1.67;;
15363;SDS011;7781;49.690;6.472;2023-05-02T12:58:40;2.03;;;1.83;;
15363;SDS011;7781;49.690;6.472;2023-05-02T13:01:09;3.40;;;2.10;;
15363;SDS011;7781;49.690;6.472;2023-05-02T13:03:39;2.10;;;1.90;;
15363;SDS011;7781;49.690;6.472;2023-05-02T13:06:11;2.90;;;1.93;;
15363;SDS011;7781;49.690;6.472;2023-05-02T13:08:40;2.10;;;1.90;;
15363;SDS011;7781;49.690;6.472;2023-05-02T13:11:09;2.43;;;1.90;;
15363;SDS011;7781;49.690;6.472;2023-05-02T13:13:40;5.23;;;2.00;;
15363;SDS011;7781;49.690;6.472;2023-05-02T13:16:08;2.37;;;1.80;;
15363;SDS011;7781;49.690;6.472;2023-05-02T13:18:37;2.00;;;1.80;;
15363;SDS011;7781;49.690;6.472;2023-05-02T13:21:06;2.07;;;1.80;;
15363;SDS011;7781;49.690;6.472;2023-05-02T13:23:36;3.93;;;1.90;;
15363;SDS011;7781;49.690;6.472;2023-05-02T13:26:06;3.80;;;1.70;;
15363;SDS011;7781;49.690;6.472;2023-05-02T13:28:36;1.57;;;1.47;;
15363;SDS011;7781;49.690;6.472;2023-05-02T13:31:05;2.53;;;1.47;;
15363;SDS011;7781;49.690;6.472;2023-05-02T13:33:34;1.57;;;1.47;;
15363;SDS011;7781;49.690;6.472;2023-05-02T13:36:03;2.00;;;1.37;;
15363;SDS011;7781;49.690;6.472;2023-05-02T13:38:32;1.40;;;1.30;;
15363;SDS011;7781;49.690;6.472;2023-05-02T13:41:04;2.17;;;1.40;;
15363;SDS011;7781;49.690;6.472;2023-05-02T13:43:34;1.60;;;1.43;;
15363;SDS011;7781;49.690;6.472;2023-05-02T13:46:03;2.17;;;1.37;;
15363;SDS011;7781;49.690;6.472;2023-05-02T13:48:33;1.50;;;1.40;;
15363;SDS011;7781;49.690;6.472;2023-05-02T13:51:03;2.17;;;1.53;;
15363;SDS011;7781;49.690;6.472;2023-05-02T13:53:31;1.83;;;1.53;;
15363;SDS011;7781;49.690;6.472;2023-05-02T13:56:04;4.93;;;1.10;;
15363;SDS011;7781;49.690;6.472;2023-05-02T13:58:33;2.20;;;1.47;;
15363;SDS011;7781;49.690;6.472;2023-05-02T14:01:02;3.13;;;1.60;;
15363;SDS011;7781;49.690;6.472;2023-05-02T14:03:30;1.50;;;1.40;;
15363;SDS011;7781;49.690;6.472;2023-05-02T14:06:00;4.20;;;1.40;;
15363;SDS011;7781;49.690;6.472;2023-05-02T14:08:29;3.00;;;1.30;;
15363;SDS011;7781;49.690;6.472;2023-05-02T14:10:58;5.87;;;1.10;;
15363;SDS011;7781;49.690;6.472;2023-05-02T14:13:34;1.67;;;1.27;;
15363;SDS011;7781;49.690;6.472;2023-05-02T14:16:03;1.27;;;1.07;;
15363;SDS011;7781;49.690;6.472;2023-05-02T14:18:32;1.30;;;1.20;;
15363;SDS011;7781;49.690;6.472;2023-05-02T14:21:00;1.67;;;1.40;;
15363;SDS011;7781;49.690;6.472;2023-05-02T14:23:32;1.10;;;1.00;;
15363;SDS011;7781;49.690;6.472;2023-05-02T14:26:01;6.43;;;1.30;;
15363;SDS011;7781;49.690;6.472;2023-05-02T14:28:30;2.13;;;1.40;;
15363;SDS011;7781;49.690;6.472;2023-05-02T14:31:01;4.10;;;1.20;;
15363;SDS011;7781;49.690;6.472;2023-05-02T14:33:30;1.90;;;1.30;;
15363;SDS011;7781;49.690;6.472;2023-05-02T14:36:00;1.30;;;1.20;;
15363;SDS011;7781;49.690;6.472;2023-05-02T14:38:29;1.87;;;1.20;;
15363;SDS011;7781;49.690;6.472;2023-05-02T14:40:58;2.20;;;1.30;;
15363;SDS011;7781;49.690;6.472;2023-05-02T14:43:28;1.60;;;1.10;;
15363;SDS011;7781;49.690;6.472;2023-05-02T14:45:57;2.60;;;1.70;;
15363;SDS011;7781;49.690;6.472;2023-05-02T14:48:29;2.73;;;1.60;;
15363;SDS011;7781;49.690;6.472;2023-05-02T14:51:01;2.37;;;1.43;;
15363;SDS011;7781;49.690;6.472;2023-05-02T14:53:30;1.97;;;1.40;;
15363;SDS011;7781;49.690;6.472;2023-05-02T14:56:00;2.73;;;1.87;;
15363;SDS011;7781;49.690;6.472;2023-05-02T14:58:29;3.00;;;1.70;;
15363;SDS011;7781;49.690;6.472;2023-05-02T15:00:59;2.03;;;1.53;;
15363;SDS011;7781;49.690;6.472;2023-05-02T15:03:30;1.90;;;1.60;;
15363;SDS011;7781;49.690;6.472;2023-05-02T15:05:59;3.70;;;2.10;;
15363;SDS011;7781;49.690;6.472;2023-05-02T15:08:28;4.60;;;1.80;;
15363;SDS011;7781;49.690;6.472;2023-05-02T15:10:57;1.93;;;1.60;;
15363;SDS011;7781;49.690;6.472;2023-05-02T15:13:27;5.90;;;1.60;;
15363;SDS011;7781;49.690;6.472;2023-05-02T15:15:55;1.60;;;1.37;;
15363;SDS011;7781;49.690;6.472;2023-05-02T15:18:24;5.00;;;1.70;;
15363;SDS011;7781;49.690;6.472;2023-05-02T15:20:55;4.60;;;1.60;;
15363;SDS011;7781;49.690;6.472;2023-05-02T15:23:26;1.70;;;1.50;;
15363;SDS011;7781;49.690;6.472;2023-05-02T15:25:55;6.97;;;1.50;;
15363;SDS011;7781;49.690;6.472;2023-05-02T15:28:23;1.30;;;1.20;;